sensor_id;sensor_type;location;lat;lon;timestamp;P1;durP1;ratioP1;P2;durP2;ratioP2
703;SDS011;335;48.694;9.120;2023-07-08T00:01:19;6.63;;;6.00;;
703;SDS011;335;48.694;9.120;2023-07-08T00:03:45;6.73;;;6.13;;
703;SDS011;335;48.694;9.120;2023-07-08T00:06:21;6.57;;;6.07;;
703;SDS011;335;48.694;9.120;2023-07-08T00:08:47;7.30;;;6.63;;
703;SDS011;335;48.694;9.120;2023-07-08T00:11:13;6.83;;;6.13;;
703;SDS011;335;48.694;9.120;2023-07-08T00:13:40;7.00;;;6.27;;
703;SDS011;335;48.694;9.120;2023-07-08T00:16:08;7.23;;;6.20;;
703;SDS011;335;48.694;9.120;2023-07-08T00:18:35;6.90;;;6.20;;
703;SDS011;335;48.694;9.120;2023-07-08T00:21:00;7.10;;;6.40;;
703;SDS011;335;48.694;9.120;2023-07-08T00:23:26;6.40;;;5.87;;
703;SDS011;335;48.694;9.120;2023-07-08T00:25:51;6.67;;;6.03;;
703;SDS011;335;48.694;9.120;2023-07-08T00:28:17;7.80;;;7.10;;
703;SDS011;335;48.694;9.120;2023-07-08T00:30:47;6.60;;;6.00;;
703;SDS011;335;48.694;9.120;2023-07-08T00:33:13;6.23;;;5.63;;
703;SDS011;335;48.694;9.120;2023-07-08T00:35:41;7.13;;;6.53;;
703;SDS011;335;48.694;9.120;2023-07-08T00:38:14;6.77;;;6.17;;
703;SDS011;335;48.694;9.120;2023-07-08T00:40:50;6.63;;;5.90;;
703;SDS011;335;48.694;9.120;2023-07-08T00:43:40;6.93;;;6.33;;
703;SDS011;335;48.694;9.120;2023-07-08T00:48:52;7.00;;;6.40;;
703;SDS011;335;48.694;9.120;2023-07-08T00:51:19;6.73;;;6.03;;
703;SDS011;335;48.694;9.120;2023-07-08T00:53:45;7.33;;;6.23;;
703;SDS011;335;48.694;9.120;2023-07-08T00:58:56;6.27;;;5.67;;
703;SDS011;335;48.694;9.120;2023-07-08T01:01:24;7.57;;;6.43;;
703;SDS011;335;48.694;9.120;2023-07-08T01:03:51;7.73;;;6.40;;
703;SDS011;335;48.694;9.120;2023-07-08T01:06:20;6.60;;;5.67;;
703;SDS011;335;48.694;9.120;2023-07-08T01:08:47;6.30;;;5.70;;
703;SDS011;335;48.694;9.120;2023-07-08T01:11:15;6.70;;;6.13;;
703;SDS011;335;48.694;9.120;2023-07-08T01:13:41;6.50;;;5.40;;
703;SDS011;335;48.694;9.120;2023-07-08T01:16:08;6.80;;;5.93;;
703;SDS011;335;48.694;9.120;2023-07-08T01:18:33;8.00;;;6.60;;
703;SDS011;335;48.694;9.120;2023-07-08T01:21:02;6.20;;;5.60;;
703;SDS011;335;48.694;9.120;2023-07-08T01:23:31;6.30;;;5.80;;
703;SDS011;335;48.694;9.120;2023-07-08T01:25:57;6.50;;;5.90;;
703;SDS011;335;48.694;9.120;2023-07-08T01:28:24;6.67;;;6.07;;
703;SDS011;335;48.694;9.120;2023-07-08T01:30:50;7.33;;;6.53;;
703;SDS011;335;48.694;9.120;2023-07-08T01:33:17;6.00;;;5.47;;
703;SDS011;335;48.694;9.120;2023-07-08T01:35:45;6.40;;;5.83;;
703;SDS011;335;48.694;9.120;2023-07-08T01:38:11;6.00;;;5.50;;
703;SDS011;335;48.694;9.120;2023-07-08T01:40:37;6.37;;;5.67;;
703;SDS011;335;48.694;9.120;2023-07-08T01:43:04;6.90;;;6.30;;
703;SDS011;335;48.694;9.120;2023-07-08T01:45:34;6.80;;;6.20;;
703;SDS011;335;48.694;9.120;2023-07-08T01:50:36;6.63;;;5.93;;
703;SDS011;335;48.694;9.120;2023-07-08T01:53:14;5.97;;;5.47;;
703;SDS011;335;48.694;9.120;2023-07-08T01:55:41;6.83;;;5.53;;
703;SDS011;335;48.694;9.120;2023-07-08T01:58:06;6.13;;;5.63;;
703;SDS011;335;48.694;9.120;2023-07-08T02:00:32;7.47;;;6.83;;
703;SDS011;335;48.694;9.120;2023-07-08T02:02:57;6.97;;;6.00;;
703;SDS011;335;48.694;9.120;2023-07-08T02:05:23;7.30;;;6.60;;
703;SDS011;335;48.694;9.120;2023-07-08T02:07:48;8.20;;;6.20;;
703;SDS011;335;48.694;9.120;2023-07-08T02:10:14;6.83;;;6.13;;
703;SDS011;335;48.694;9.120;2023-07-08T02:12:39;6.27;;;5.77;;
703;SDS011;335;48.694;9.120;2023-07-08T02:15:05;7.47;;;6.67;;
703;SDS011;335;48.694;9.120;2023-07-08T02:17:31;6.30;;;5.77;;
703;SDS011;335;48.694;9.120;2023-07-08T02:19:56;6.80;;;6.10;;
703;SDS011;335;48.694;9.120;2023-07-08T02:22:22;6.63;;;6.03;;
703;SDS011;335;48.694;9.120;2023-07-08T02:24:48;7.27;;;6.60;;
703;SDS011;335;48.694;9.120;2023-07-08T02:27:13;7.10;;;6.47;;
703;SDS011;335;48.694;9.120;2023-07-08T02:29:39;6.60;;;6.00;;
703;SDS011;335;48.694;9.120;2023-07-08T02:32:04;6.30;;;5.70;;
703;SDS011;335;48.694;9.120;2023-07-08T02:34:30;7.20;;;6.60;;
703;SDS011;335;48.694;9.120;2023-07-08T02:36:55;5.97;;;5.50;;
703;SDS011;335;48.694;9.120;2023-07-08T02:39:21;7.70;;;6.90;;
703;SDS011;335;48.694;9.120;2023-07-08T02:41:47;6.47;;;5.80;;
703;SDS011;335;48.694;9.120;2023-07-08T02:44:12;6.67;;;6.07;;
703;SDS011;335;48.694;9.120;2023-07-08T02:46:37;8.50;;;6.47;;
703;SDS011;335;48.694;9.120;2023-07-08T02:49:03;6.73;;;6.07;;
703;SDS011;335;48.694;9.120;2023-07-08T02:51:29;6.93;;;6.27;;
703;SDS011;335;48.694;9.120;2023-07-08T02:53:54;6.63;;;6.03;;
703;SDS011;335;48.694;9.120;2023-07-08T02:56:19;6.90;;;6.20;;
703;SDS011;335;48.694;9.120;2023-07-08T02:58:47;7.33;;;6.03;;
703;SDS011;335;48.694;9.120;2023-07-08T03:01:12;7.87;;;6.97;;
703;SDS011;335;48.694;9.120;2023-07-08T03:03:43;7.37;;;6.60;;
703;SDS011;335;48.694;9.120;2023-07-08T03:06:09;6.90;;;5.80;;
703;SDS011;335;48.694;9.120;2023-07-08T03:08:35;7.23;;;6.53;;
703;SDS011;335;48.694;9.120;2023-07-08T03:11:01;6.60;;;6.00;;
703;SDS011;335;48.694;9.120;2023-07-08T03:13:28;5.80;;;5.23;;
703;SDS011;335;48.694;9.120;2023-07-08T03:15:54;7.60;;;6.90;;
703;SDS011;335;48.694;9.120;2023-07-08T03:18:24;6.70;;;6.10;;
703;SDS011;335;48.694;9.120;2023-07-08T03:20:51;7.07;;;5.93;;
703;SDS011;335;48.694;9.120;2023-07-08T03:23:17;7.10;;;5.80;;
703;SDS011;335;48.694;9.120;2023-07-08T03:25:42;6.23;;;5.73;;
703;SDS011;335;48.694;9.120;2023-07-08T03:28:08;6.43;;;5.83;;
703;SDS011;335;48.694;9.120;2023-07-08T03:30:39;8.07;;;7.27;;
703;SDS011;335;48.694;9.120;2023-07-08T03:33:09;7.10;;;6.07;;
703;SDS011;335;48.694;9.120;2023-07-08T03:35:34;6.50;;;5.80;;
703;SDS011;335;48.694;9.120;2023-07-08T03:38:00;6.30;;;5.70;;
703;SDS011;335;48.694;9.120;2023-07-08T03:40:25;7.40;;;6.57;;
703;SDS011;335;48.694;9.120;2023-07-08T03:42:51;6.73;;;6.13;;
703;SDS011;335;48.694;9.120;2023-07-08T03:45:16;7.00;;;6.30;;
703;SDS011;335;48.694;9.120;2023-07-08T03:47:41;7.07;;;6.40;;
703;SDS011;335;48.694;9.120;2023-07-08T03:50:11;7.47;;;6.73;;
703;SDS011;335;48.694;9.120;2023-07-08T03:52:42;6.50;;;5.93;;
703;SDS011;335;48.694;9.120;2023-07-08T03:55:08;7.30;;;6.60;;
703;SDS011;335;48.694;9.120;2023-07-08T03:57:35;7.17;;;6.50;;
703;SDS011;335;48.694;9.120;2023-07-08T04:00:01;6.63;;;5.60;;
703;SDS011;335;48.694;9.120;2023-07-08T04:02:26;7.13;;;6.17;;
703;SDS011;335;48.694;9.120;2023-07-08T04:04:51;6.73;;;6.13;;
703;SDS011;335;48.694;9.120;2023-07-08T04:07:16;7.27;;;6.57;;
703;SDS011;335;48.694;9.120;2023-07-08T04:09:42;7.53;;;6.83;;
703;SDS011;335;48.694;9.120;2023-07-08T04:12:09;6.50;;;5.90;;
703;SDS011;335;48.694;9.120;2023-07-08T04:14:35;6.50;;;5.87;;
703;SDS011;335;48.694;9.120;2023-07-08T04:17:00;7.70;;;6.57;;
703;SDS011;335;48.694;9.120;2023-07-08T04:19:26;6.40;;;5.80;;
703;SDS011;335;48.694;9.120;2023-07-08T04:21:52;5.90;;;5.40;;
703;SDS011;335;48.694;9.120;2023-07-08T04:24:17;8.10;;;6.10;;
703;SDS011;335;48.694;9.120;2023-07-08T04:26:43;7.90;;;6.40;;
703;SDS011;335;48.694;9.120;2023-07-08T04:29:18;6.47;;;5.87;;
703;SDS011;335;48.694;9.120;2023-07-08T04:31:44;7.00;;;6.30;;
703;SDS011;335;48.694;9.120;2023-07-08T04:34:10;6.67;;;6.17;;
703;SDS011;335;48.694;9.120;2023-07-08T04:36:35;6.90;;;6.30;;
703;SDS011;335;48.694;9.120;2023-07-08T04:39:02;7.43;;;6.73;;
703;SDS011;335;48.694;9.120;2023-07-08T04:41:29;7.00;;;6.40;;
703;SDS011;335;48.694;9.120;2023-07-08T04:43:55;7.57;;;6.90;;
703;SDS011;335;48.694;9.120;2023-07-08T04:46:35;7.23;;;6.63;;
703;SDS011;335;48.694;9.120;2023-07-08T04:49:04;6.60;;;6.10;;
703;SDS011;335;48.694;9.120;2023-07-08T04:51:30;6.20;;;5.70;;
703;SDS011;335;48.694;9.120;2023-07-08T04:53:55;5.63;;;5.13;;
703;SDS011;335;48.694;9.120;2023-07-08T04:56:20;6.53;;;5.90;;
703;SDS011;335;48.694;9.120;2023-07-08T04:58:47;10.20;;;6.90;;
703;SDS011;335;48.694;9.120;2023-07-08T05:01:12;6.70;;;6.10;;
703;SDS011;335;48.694;9.120;2023-07-08T05:03:38;7.03;;;6.43;;
703;SDS011;335;48.694;9.120;2023-07-08T05:06:03;6.87;;;6.27;;
703;SDS011;335;48.694;9.120;2023-07-08T05:08:28;6.80;;;6.20;;
703;SDS011;335;48.694;9.120;2023-07-08T05:10:53;6.80;;;6.10;;
703;SDS011;335;48.694;9.120;2023-07-08T05:13:19;6.93;;;6.20;;
703;SDS011;335;48.694;9.120;2023-07-08T05:15:45;6.50;;;6.00;;
703;SDS011;335;48.694;9.120;2023-07-08T05:18:10;6.67;;;5.93;;
703;SDS011;335;48.694;9.120;2023-07-08T05:20:35;6.67;;;6.07;;
703;SDS011;335;48.694;9.120;2023-07-08T05:23:01;8.13;;;7.40;;
703;SDS011;335;48.694;9.120;2023-07-08T05:25:27;6.80;;;6.07;;
703;SDS011;335;48.694;9.120;2023-07-08T05:27:52;7.07;;;6.47;;
703;SDS011;335;48.694;9.120;2023-07-08T05:30:18;7.60;;;6.80;;
703;SDS011;335;48.694;9.120;2023-07-08T05:32:44;9.17;;;6.50;;
703;SDS011;335;48.694;9.120;2023-07-08T05:35:09;10.40;;;6.63;;
703;SDS011;335;48.694;9.120;2023-07-08T05:37:35;6.50;;;5.90;;
703;SDS011;335;48.694;9.120;2023-07-08T05:40:00;7.10;;;6.40;;
703;SDS011;335;48.694;9.120;2023-07-08T05:42:29;7.03;;;6.27;;
703;SDS011;335;48.694;9.120;2023-07-08T05:44:54;7.70;;;6.90;;
703;SDS011;335;48.694;9.120;2023-07-08T05:47:20;6.13;;;5.63;;
703;SDS011;335;48.694;9.120;2023-07-08T05:49:46;6.90;;;6.13;;
703;SDS011;335;48.694;9.120;2023-07-08T05:52:13;8.07;;;7.20;;
703;SDS011;335;48.694;9.120;2023-07-08T05:54:39;7.73;;;7.03;;
703;SDS011;335;48.694;9.120;2023-07-08T05:57:06;6.40;;;5.90;;
703;SDS011;335;48.694;9.120;2023-07-08T05:59:33;6.80;;;6.20;;
703;SDS011;335;48.694;9.120;2023-07-08T06:01:59;7.80;;;7.00;;
703;SDS011;335;48.694;9.120;2023-07-08T06:04:24;6.87;;;6.20;;
703;SDS011;335;48.694;9.120;2023-07-08T06:06:49;9.00;;;6.20;;
703;SDS011;335;48.694;9.120;2023-07-08T06:09:15;6.90;;;6.30;;
703;SDS011;335;48.694;9.120;2023-07-08T06:11:40;7.27;;;6.57;;
703;SDS011;335;48.694;9.120;2023-07-08T06:14:05;6.00;;;5.60;;
703;SDS011;335;48.694;9.120;2023-07-08T06:16:31;6.13;;;5.60;;
703;SDS011;335;48.694;9.120;2023-07-08T06:18:56;6.47;;;5.87;;
703;SDS011;335;48.694;9.120;2023-07-08T06:21:22;7.90;;;7.20;;
703;SDS011;335;48.694;9.120;2023-07-08T06:23:48;7.30;;;6.60;;
703;SDS011;335;48.694;9.120;2023-07-08T06:26:13;6.50;;;5.90;;
703;SDS011;335;48.694;9.120;2023-07-08T06:28:39;7.57;;;6.40;;
703;SDS011;335;48.694;9.120;2023-07-08T06:31:04;6.40;;;5.80;;
703;SDS011;335;48.694;9.120;2023-07-08T06:33:29;7.10;;;6.50;;
703;SDS011;335;48.694;9.120;2023-07-08T06:35:55;7.30;;;6.60;;
703;SDS011;335;48.694;9.120;2023-07-08T06:38:20;9.07;;;7.30;;
703;SDS011;335;48.694;9.120;2023-07-08T06:40:45;7.50;;;6.90;;
703;SDS011;335;48.694;9.120;2023-07-08T06:43:11;6.33;;;5.73;;
703;SDS011;335;48.694;9.120;2023-07-08T06:45:36;6.97;;;6.13;;
703;SDS011;335;48.694;9.120;2023-07-08T06:48:01;6.03;;;5.43;;
703;SDS011;335;48.694;9.120;2023-07-08T06:50:27;6.93;;;6.23;;
703;SDS011;335;48.694;9.120;2023-07-08T06:52:52;6.70;;;6.00;;
703;SDS011;335;48.694;9.120;2023-07-08T06:55:17;5.83;;;5.33;;
703;SDS011;335;48.694;9.120;2023-07-08T06:57:43;6.70;;;6.17;;
703;SDS011;335;48.694;9.120;2023-07-08T07:00:09;6.00;;;5.50;;
703;SDS011;335;48.694;9.120;2023-07-08T07:02:35;6.50;;;6.00;;
703;SDS011;335;48.694;9.120;2023-07-08T07:05:01;6.57;;;5.97;;
703;SDS011;335;48.694;9.120;2023-07-08T07:07:27;5.53;;;4.83;;
703;SDS011;335;48.694;9.120;2023-07-08T07:09:53;5.53;;;5.13;;
703;SDS011;335;48.694;9.120;2023-07-08T07:12:19;6.43;;;5.83;;
703;SDS011;335;48.694;9.120;2023-07-08T07:14:44;6.70;;;6.10;;
703;SDS011;335;48.694;9.120;2023-07-08T07:17:09;5.80;;;5.30;;
703;SDS011;335;48.694;9.120;2023-07-08T07:19:35;6.37;;;5.77;;
703;SDS011;335;48.694;9.120;2023-07-08T07:22:00;5.67;;;5.27;;
703;SDS011;335;48.694;9.120;2023-07-08T07:24:26;7.00;;;6.40;;
703;SDS011;335;48.694;9.120;2023-07-08T07:26:51;6.80;;;6.27;;
703;SDS011;335;48.694;9.120;2023-07-08T07:29:17;5.53;;;5.13;;
703;SDS011;335;48.694;9.120;2023-07-08T07:31:42;5.93;;;5.07;;
703;SDS011;335;48.694;9.120;2023-07-08T07:34:08;6.20;;;5.60;;
703;SDS011;335;48.694;9.120;2023-07-08T07:36:33;5.53;;;5.13;;
703;SDS011;335;48.694;9.120;2023-07-08T07:38:59;11.33;;;6.20;;
703;SDS011;335;48.694;9.120;2023-07-08T07:41:24;6.73;;;6.17;;
703;SDS011;335;48.694;9.120;2023-07-08T07:43:50;5.07;;;4.23;;
703;SDS011;335;48.694;9.120;2023-07-08T07:46:15;4.60;;;4.27;;
703;SDS011;335;48.694;9.120;2023-07-08T07:48:40;6.77;;;4.70;;
703;SDS011;335;48.694;9.120;2023-07-08T07:51:07;4.63;;;4.23;;
703;SDS011;335;48.694;9.120;2023-07-08T07:53:35;4.30;;;4.00;;
703;SDS011;335;48.694;9.120;2023-07-08T07:56:01;5.70;;;5.10;;
703;SDS011;335;48.694;9.120;2023-07-08T07:58:27;4.83;;;4.40;;
703;SDS011;335;48.694;9.120;2023-07-08T08:00:54;4.60;;;4.20;;
703;SDS011;335;48.694;9.120;2023-07-08T08:03:20;4.67;;;4.27;;
703;SDS011;335;48.694;9.120;2023-07-08T08:05:46;5.97;;;5.07;;
703;SDS011;335;48.694;9.120;2023-07-08T08:08:11;4.73;;;4.40;;
703;SDS011;335;48.694;9.120;2023-07-08T08:10:37;5.20;;;4.80;;
703;SDS011;335;48.694;9.120;2023-07-08T08:13:02;7.03;;;5.40;;
703;SDS011;335;48.694;9.120;2023-07-08T08:15:28;4.80;;;4.50;;
703;SDS011;335;48.694;9.120;2023-07-08T08:17:53;4.50;;;4.10;;
703;SDS011;335;48.694;9.120;2023-07-08T08:20:19;5.03;;;4.63;;
703;SDS011;335;48.694;9.120;2023-07-08T08:22:47;5.03;;;4.63;;
703;SDS011;335;48.694;9.120;2023-07-08T08:25:13;5.20;;;4.70;;
703;SDS011;335;48.694;9.120;2023-07-08T08:27:39;4.77;;;4.43;;
703;SDS011;335;48.694;9.120;2023-07-08T08:30:05;6.07;;;4.80;;
703;SDS011;335;48.694;9.120;2023-07-08T08:32:31;4.47;;;4.17;;
703;SDS011;335;48.694;9.120;2023-07-08T08:34:56;5.73;;;5.20;;
703;SDS011;335;48.694;9.120;2023-07-08T08:37:22;4.80;;;4.40;;
703;SDS011;335;48.694;9.120;2023-07-08T08:39:47;4.73;;;4.33;;
703;SDS011;335;48.694;9.120;2023-07-08T08:42:27;5.77;;;4.23;;
703;SDS011;335;48.694;9.120;2023-07-08T08:44:55;4.83;;;4.00;;
703;SDS011;335;48.694;9.120;2023-07-08T08:47:32;4.00;;;3.70;;
703;SDS011;335;48.694;9.120;2023-07-08T08:50:02;4.07;;;3.13;;
703;SDS011;335;48.694;9.120;2023-07-08T08:52:38;3.27;;;3.07;;
703;SDS011;335;48.694;9.120;2023-07-08T08:55:10;3.63;;;3.40;;
703;SDS011;335;48.694;9.120;2023-07-08T08:57:52;2.77;;;2.60;;
703;SDS011;335;48.694;9.120;2023-07-08T09:00:26;2.90;;;2.70;;
703;SDS011;335;48.694;9.120;2023-07-08T09:03:08;3.10;;;2.80;;
703;SDS011;335;48.694;9.120;2023-07-08T09:05:37;3.17;;;2.77;;
703;SDS011;335;48.694;9.120;2023-07-08T09:08:08;2.50;;;2.40;;
703;SDS011;335;48.694;9.120;2023-07-08T09:10:47;2.97;;;2.30;;
703;SDS011;335;48.694;9.120;2023-07-08T09:13:24;2.73;;;2.60;;
703;SDS011;335;48.694;9.120;2023-07-08T09:15:54;3.50;;;3.20;;
703;SDS011;335;48.694;9.120;2023-07-08T09:18:54;3.27;;;2.97;;
703;SDS011;335;48.694;9.120;2023-07-08T09:21:30;3.30;;;3.00;;
703;SDS011;335;48.694;9.120;2023-07-08T09:24:02;4.73;;;3.30;;
703;SDS011;335;48.694;9.120;2023-07-08T09:26:32;3.90;;;3.10;;
703;SDS011;335;48.694;9.120;2023-07-08T09:28:58;3.73;;;3.03;;
703;SDS011;335;48.694;9.120;2023-07-08T09:31:24;3.20;;;3.00;;
703;SDS011;335;48.694;9.120;2023-07-08T09:34:04;3.90;;;3.60;;
703;SDS011;335;48.694;9.120;2023-07-08T09:36:31;3.63;;;3.33;;
703;SDS011;335;48.694;9.120;2023-07-08T09:38:57;3.27;;;3.07;;
703;SDS011;335;48.694;9.120;2023-07-08T09:41:55;4.03;;;3.73;;
703;SDS011;335;48.694;9.120;2023-07-08T09:44:24;4.33;;;3.40;;
703;SDS011;335;48.694;9.120;2023-07-08T09:46:58;3.30;;;3.00;;
703;SDS011;335;48.694;9.120;2023-07-08T09:51:50;4.33;;;2.60;;
703;SDS011;335;48.694;9.120;2023-07-08T09:54:17;3.33;;;3.03;;
703;SDS011;335;48.694;9.120;2023-07-08T09:56:50;2.67;;;2.47;;
703;SDS011;335;48.694;9.120;2023-07-08T09:59:20;2.87;;;2.67;;
703;SDS011;335;48.694;9.120;2023-07-08T10:01:47;3.10;;;2.90;;
703;SDS011;335;48.694;9.120;2023-07-08T10:04:12;2.90;;;2.80;;
703;SDS011;335;48.694;9.120;2023-07-08T10:06:38;2.80;;;2.63;;
703;SDS011;335;48.694;9.120;2023-07-08T10:09:05;2.60;;;2.50;;
703;SDS011;335;48.694;9.120;2023-07-08T10:11:36;2.73;;;2.53;;
703;SDS011;335;48.694;9.120;2023-07-08T10:14:06;2.67;;;2.00;;
703;SDS011;335;48.694;9.120;2023-07-08T10:16:36;3.73;;;2.70;;
703;SDS011;335;48.694;9.120;2023-07-08T10:19:04;3.00;;;2.80;;
703;SDS011;335;48.694;9.120;2023-07-08T10:21:36;2.43;;;2.33;;
703;SDS011;335;48.694;9.120;2023-07-08T10:26:49;2.07;;;1.97;;
703;SDS011;335;48.694;9.120;2023-07-08T10:29:32;2.77;;;2.37;;
703;SDS011;335;48.694;9.120;2023-07-08T10:32:07;2.20;;;2.10;;
703;SDS011;335;48.694;9.120;2023-07-08T10:35:00;2.60;;;2.23;;
703;SDS011;335;48.694;9.120;2023-07-08T10:37:43;2.67;;;2.57;;
703;SDS011;335;48.694;9.120;2023-07-08T10:40:22;2.33;;;2.23;;
703;SDS011;335;48.694;9.120;2023-07-08T10:43:06;2.87;;;1.87;;
703;SDS011;335;48.694;9.120;2023-07-08T10:46:14;4.67;;;2.33;;
703;SDS011;335;48.694;9.120;2023-07-08T10:51:36;2.47;;;2.30;;
703;SDS011;335;48.694;9.120;2023-07-08T10:57:11;2.80;;;2.60;;
703;SDS011;335;48.694;9.120;2023-07-08T11:00:09;2.53;;;2.43;;
703;SDS011;335;48.694;9.120;2023-07-08T11:03:05;2.93;;;2.73;;
703;SDS011;335;48.694;9.120;2023-07-08T11:05:42;2.20;;;2.00;;
703;SDS011;335;48.694;9.120;2023-07-08T11:10:58;3.20;;;2.90;;
703;SDS011;335;48.694;9.120;2023-07-08T11:13:27;3.10;;;2.90;;
703;SDS011;335;48.694;9.120;2023-07-08T11:15:56;3.00;;;2.80;;
703;SDS011;335;48.694;9.120;2023-07-08T11:20:59;2.50;;;2.30;;
703;SDS011;335;48.694;9.120;2023-07-08T11:23:31;2.93;;;2.73;;
703;SDS011;335;48.694;9.120;2023-07-08T11:28:57;2.70;;;2.60;;
703;SDS011;335;48.694;9.120;2023-07-08T11:31:24;2.20;;;2.10;;
703;SDS011;335;48.694;9.120;2023-07-08T11:33:51;2.90;;;2.63;;
703;SDS011;335;48.694;9.120;2023-07-08T11:36:17;2.63;;;2.43;;
703;SDS011;335;48.694;9.120;2023-07-08T11:38:47;2.17;;;2.03;;
703;SDS011;335;48.694;9.120;2023-07-08T11:41:18;2.40;;;2.30;;
703;SDS011;335;48.694;9.120;2023-07-08T11:43:52;2.43;;;2.33;;
703;SDS011;335;48.694;9.120;2023-07-08T11:46:22;2.50;;;2.30;;
703;SDS011;335;48.694;9.120;2023-07-08T11:48:51;2.17;;;2.07;;
703;SDS011;335;48.694;9.120;2023-07-08T11:51:23;2.33;;;2.10;;
703;SDS011;335;48.694;9.120;2023-07-08T11:56:28;2.10;;;2.00;;
703;SDS011;335;48.694;9.120;2023-07-08T11:59:14;2.40;;;2.20;;
703;SDS011;335;48.694;9.120;2023-07-08T12:02:01;2.50;;;2.30;;
703;SDS011;335;48.694;9.120;2023-07-08T12:07:32;1.63;;;1.50;;
703;SDS011;335;48.694;9.120;2023-07-08T12:10:08;2.13;;;2.03;;
703;SDS011;335;48.694;9.120;2023-07-08T12:12:37;2.33;;;2.17;;
703;SDS011;335;48.694;9.120;2023-07-08T12:15:22;2.10;;;2.00;;
703;SDS011;335;48.694;9.120;2023-07-08T12:17:54;2.43;;;2.33;;
703;SDS011;335;48.694;9.120;2023-07-08T12:20:22;2.70;;;2.50;;
703;SDS011;335;48.694;9.120;2023-07-08T12:22:49;2.90;;;2.40;;
703;SDS011;335;48.694;9.120;2023-07-08T12:25:15;2.20;;;2.03;;
703;SDS011;335;48.694;9.120;2023-07-08T12:27:44;2.27;;;2.10;;
703;SDS011;335;48.694;9.120;2023-07-08T12:30:10;2.10;;;1.77;;
703;SDS011;335;48.694;9.120;2023-07-08T12:32:36;1.93;;;1.80;;
703;SDS011;335;48.694;9.120;2023-07-08T12:35:02;2.43;;;2.23;;
703;SDS011;335;48.694;9.120;2023-07-08T12:37:29;2.63;;;2.43;;
703;SDS011;335;48.694;9.120;2023-07-08T12:39:56;1.73;;;1.63;;
703;SDS011;335;48.694;9.120;2023-07-08T12:42:25;2.03;;;1.93;;
703;SDS011;335;48.694;9.120;2023-07-08T12:44:50;2.10;;;2.00;;
703;SDS011;335;48.694;9.120;2023-07-08T12:47:19;2.10;;;2.00;;
703;SDS011;335;48.694;9.120;2023-07-08T12:49:44;2.03;;;1.90;;
703;SDS011;335;48.694;9.120;2023-07-08T12:52:18;5.00;;;2.57;;
703;SDS011;335;48.694;9.120;2023-07-08T12:54:47;2.07;;;1.93;;
703;SDS011;335;48.694;9.120;2023-07-08T12:57:14;2.80;;;1.87;;
703;SDS011;335;48.694;9.120;2023-07-08T12:59:40;2.33;;;2.13;;
703;SDS011;335;48.694;9.120;2023-07-08T13:02:09;1.90;;;1.80;;
703;SDS011;335;48.694;9.120;2023-07-08T13:04:40;2.37;;;2.27;;
703;SDS011;335;48.694;9.120;2023-07-08T13:07:07;2.20;;;1.97;;
703;SDS011;335;48.694;9.120;2023-07-08T13:09:43;6.40;;;2.13;;
703;SDS011;335;48.694;9.120;2023-07-08T13:12:20;2.20;;;2.10;;
703;SDS011;335;48.694;9.120;2023-07-08T13:14:49;2.00;;;1.90;;
703;SDS011;335;48.694;9.120;2023-07-08T13:17:14;2.60;;;2.40;;
703;SDS011;335;48.694;9.120;2023-07-08T13:19:41;2.00;;;1.90;;
703;SDS011;335;48.694;9.120;2023-07-08T13:22:09;1.77;;;1.67;;
703;SDS011;335;48.694;9.120;2023-07-08T13:24:37;2.13;;;1.90;;
703;SDS011;335;48.694;9.120;2023-07-08T13:27:05;2.90;;;2.07;;
703;SDS011;335;48.694;9.120;2023-07-08T13:29:34;2.10;;;1.70;;
703;SDS011;335;48.694;9.120;2023-07-08T13:32:04;2.40;;;2.20;;
703;SDS011;335;48.694;9.120;2023-07-08T13:34:30;2.33;;;2.13;;
703;SDS011;335;48.694;9.120;2023-07-08T13:36:57;1.93;;;1.83;;
703;SDS011;335;48.694;9.120;2023-07-08T13:39:32;2.30;;;2.10;;
703;SDS011;335;48.694;9.120;2023-07-08T13:41:58;2.20;;;2.00;;
703;SDS011;335;48.694;9.120;2023-07-08T13:44:24;2.83;;;2.03;;
703;SDS011;335;48.694;9.120;2023-07-08T13:49:24;1.53;;;1.43;;
703;SDS011;335;48.694;9.120;2023-07-08T13:54:43;2.23;;;2.13;;
703;SDS011;335;48.694;9.120;2023-07-08T13:57:11;2.17;;;1.50;;
703;SDS011;335;48.694;9.120;2023-07-08T13:59:37;1.67;;;1.57;;
703;SDS011;335;48.694;9.120;2023-07-08T14:02:06;1.80;;;1.70;;
703;SDS011;335;48.694;9.120;2023-07-08T14:04:39;1.83;;;1.40;;
703;SDS011;335;48.694;9.120;2023-07-08T14:07:07;1.60;;;1.50;;
703;SDS011;335;48.694;9.120;2023-07-08T14:09:39;2.10;;;1.80;;
703;SDS011;335;48.694;9.120;2023-07-08T14:12:04;1.80;;;1.70;;
703;SDS011;335;48.694;9.120;2023-07-08T14:14:30;1.60;;;1.60;;
703;SDS011;335;48.694;9.120;2023-07-08T14:16:55;1.77;;;1.67;;
703;SDS011;335;48.694;9.120;2023-07-08T14:19:24;2.40;;;1.57;;
703;SDS011;335;48.694;9.120;2023-07-08T14:21:53;2.20;;;1.63;;
703;SDS011;335;48.694;9.120;2023-07-08T14:24:20;2.07;;;1.67;;
703;SDS011;335;48.694;9.120;2023-07-08T14:26:45;2.50;;;2.07;;
703;SDS011;335;48.694;9.120;2023-07-08T14:29:11;2.03;;;1.83;;
703;SDS011;335;48.694;9.120;2023-07-08T14:31:37;2.40;;;1.63;;
703;SDS011;335;48.694;9.120;2023-07-08T14:34:06;4.57;;;1.80;;
703;SDS011;335;48.694;9.120;2023-07-08T14:36:33;1.97;;;1.80;;
703;SDS011;335;48.694;9.120;2023-07-08T14:38:59;2.03;;;1.87;;
703;SDS011;335;48.694;9.120;2023-07-08T14:41:26;1.90;;;1.80;;
703;SDS011;335;48.694;9.120;2023-07-08T14:43:51;2.03;;;1.93;;
703;SDS011;335;48.694;9.120;2023-07-08T14:46:17;1.87;;;1.77;;
703;SDS011;335;48.694;9.120;2023-07-08T14:48:42;2.23;;;2.00;;
703;SDS011;335;48.694;9.120;2023-07-08T14:51:07;2.83;;;2.27;;
703;SDS011;335;48.694;9.120;2023-07-08T14:53:33;2.30;;;2.03;;
703;SDS011;335;48.694;9.120;2023-07-08T14:55:58;1.70;;;1.60;;
703;SDS011;335;48.694;9.120;2023-07-08T14:58:29;3.57;;;2.03;;
703;SDS011;335;48.694;9.120;2023-07-08T15:00:56;1.97;;;1.87;;
703;SDS011;335;48.694;9.120;2023-07-08T15:03:23;2.03;;;1.87;;
703;SDS011;335;48.694;9.120;2023-07-08T15:05:52;2.00;;;1.90;;
703;SDS011;335;48.694;9.120;2023-07-08T15:08:17;1.70;;;1.60;;
703;SDS011;335;48.694;9.120;2023-07-08T15:10:49;1.83;;;1.73;;
703;SDS011;335;48.694;9.120;2023-07-08T15:13:16;1.67;;;1.57;;
703;SDS011;335;48.694;9.120;2023-07-08T15:15:45;2.13;;;2.03;;
703;SDS011;335;48.694;9.120;2023-07-08T15:18:12;2.63;;;2.00;;
703;SDS011;335;48.694;9.120;2023-07-08T15:20:38;1.80;;;1.70;;
703;SDS011;335;48.694;9.120;2023-07-08T15:23:04;1.67;;;1.57;;
703;SDS011;335;48.694;9.120;2023-07-08T15:25:29;2.17;;;2.03;;
703;SDS011;335;48.694;9.120;2023-07-08T15:27:55;3.57;;;2.00;;
703;SDS011;335;48.694;9.120;2023-07-08T15:30:22;2.70;;;2.10;;
703;SDS011;335;48.694;9.120;2023-07-08T15:32:49;2.93;;;2.00;;
703;SDS011;335;48.694;9.120;2023-07-08T15:35:20;1.97;;;1.87;;
703;SDS011;335;48.694;9.120;2023-07-08T15:37:47;2.53;;;2.17;;
703;SDS011;335;48.694;9.120;2023-07-08T15:40:16;1.63;;;1.53;;
703;SDS011;335;48.694;9.120;2023-07-08T15:42:44;2.10;;;1.90;;
703;SDS011;335;48.694;9.120;2023-07-08T15:47:59;1.60;;;1.50;;
703;SDS011;335;48.694;9.120;2023-07-08T15:50:25;2.60;;;2.30;;
703;SDS011;335;48.694;9.120;2023-07-08T15:52:52;1.90;;;1.80;;
703;SDS011;335;48.694;9.120;2023-07-08T15:55:21;2.17;;;1.83;;
703;SDS011;335;48.694;9.120;2023-07-08T15:57:53;2.13;;;2.03;;
703;SDS011;335;48.694;9.120;2023-07-08T16:00:21;1.93;;;1.83;;
703;SDS011;335;48.694;9.120;2023-07-08T16:02:49;1.83;;;1.70;;
703;SDS011;335;48.694;9.120;2023-07-08T16:05:18;3.37;;;1.80;;
703;SDS011;335;48.694;9.120;2023-07-08T16:07:44;2.00;;;1.60;;
703;SDS011;335;48.694;9.120;2023-07-08T16:10:11;3.17;;;1.80;;
703;SDS011;335;48.694;9.120;2023-07-08T16:12:36;2.20;;;1.67;;
703;SDS011;335;48.694;9.120;2023-07-08T16:15:02;1.97;;;1.80;;
703;SDS011;335;48.694;9.120;2023-07-08T16:17:28;2.43;;;2.23;;
703;SDS011;335;48.694;9.120;2023-07-08T16:19:55;1.87;;;1.77;;
703;SDS011;335;48.694;9.120;2023-07-08T16:22:21;4.10;;;1.83;;
703;SDS011;335;48.694;9.120;2023-07-08T16:24:46;1.73;;;1.63;;
703;SDS011;335;48.694;9.120;2023-07-08T16:27:11;2.33;;;2.13;;
703;SDS011;335;48.694;9.120;2023-07-08T16:29:37;2.17;;;1.97;;
703;SDS011;335;48.694;9.120;2023-07-08T16:32:02;2.67;;;2.47;;